Time;durP1;ratioP1;P1;durP2;ratioP2;P2;SDS_P1;SDS_P2;PMS_P1;PMS_P2;Temp;Humidity;BMP_temperature;BMP_pressure;BME280_temperature;BME280_humidity;BME280_pressure;Samples;Min_cycle;Max_cycle;Signal;HPM_P1;HPM_P2
2022/01/22 00:01:56;;;;;;;0.30;0.30;;;2.40;99.90;;;;;;5106902;28;20141;-62
2022/01/22 00:04:21;;;;;;;0.63;0.30;;;2.40;99.90;;;;;;5097789;28;20503;-63
2022/01/22 00:06:49;;;;;;;0.82;0.30;;;2.40;99.90;;;;;;5106673;28;20035;-63
2022/01/22 00:09:15;;;;;;;0.40;0.40;;;2.40;99.90;;;;;;5094511;28;20031;-63
2022/01/22 00:11:50;;;;;;;1.50;0.50;;;2.40;99.90;;;;;;5094553;28;20560;-61
2022/01/22 00:14:25;;;;;;;0.22;0.20;;;2.40;99.90;;;;;;5092075;28;20118;-60
2022/01/22 00:16:57;;;;;;;0.52;0.47;;;2.40;99.90;;;;;;5100844;27;20036;-61
2022/01/22 00:19:24;;;;;;;0.38;0.22;;;2.40;99.90;;;;;;5078979;28;20036;-60
2022/01/22 00:21:50;;;;;;;0.70;0.50;;;2.40;99.90;;;;;;5083296;28;20060;-61
2022/01/22 00:24:16;;;;;;;0.57;0.57;;;2.30;99.90;;;;;;5079062;28;20043;-62
2022/01/22 00:26:43;;;;;;;0.32;0.25;;;2.40;99.90;;;;;;5091260;28;20816;-63
2022/01/22 00:29:10;;;;;;;0.47;0.30;;;2.30;99.90;;;;;;5076956;28;20427;-63
2022/01/22 00:31:38;;;;;;;0.40;0.40;;;2.30;99.90;;;;;;5088472;28;20032;-62
2022/01/22 00:34:03;;;;;;;0.98;0.40;;;2.40;99.90;;;;;;5077085;28;20101;-62
2022/01/22 00:36:29;;;;;;;0.28;0.20;;;2.40;99.90;;;;;;5087287;28;20048;-61
2022/01/22 00:38:55;;;;;;;0.32;0.30;;;2.40;99.90;;;;;;5080556;28;20036;-62
2022/01/22 00:41:21;;;;;;;0.40;0.25;;;2.40;99.90;;;;;;5091349;28;20093;-62
2022/01/22 00:43:48;;;;;;;0.45;0.30;;;2.40;99.90;;;;;;5080578;28;20043;-62
2022/01/22 00:46:13;;;;;;;0.20;0.20;;;2.40;99.90;;;;;;5089950;28;20051;-62
2022/01/22 00:48:39;;;;;;;0.90;0.30;;;2.40;99.90;;;;;;5080738;28;20048;-63
2022/01/22 00:51:04;;;;;;;0.40;0.35;;;2.40;99.90;;;;;;5086639;28;20059;-62
2022/01/22 00:53:32;;;;;;;0.30;0.30;;;2.30;99.90;;;;;;5079043;28;20036;-63
2022/01/22 00:55:58;;;;;;;0.20;0.20;;;2.30;99.90;;;;;;5092120;28;20522;-63
2022/01/22 00:58:24;;;;;;;0.50;0.30;;;2.30;99.90;;;;;;5069743;28;20332;-63
2022/01/22 01:00:50;;;;;;;0.20;0.20;;;2.30;99.90;;;;;;5088153;28;20657;-63
2022/01/22 01:03:15;;;;;;;0.50;0.20;;;2.30;99.90;;;;;;5089566;28;20036;-62
2022/01/22 01:05:41;;;;;;;0.22;0.20;;;2.30;99.90;;;;;;5086445;28;20036;-62
2022/01/22 01:08:06;;;;;;;0.40;0.30;;;2.30;99.90;;;;;;5090737;28;20518;-60
2022/01/22 01:10:32;;;;;;;0.30;0.30;;;2.30;99.90;;;;;;5086793;28;20093;-61
2022/01/22 01:12:58;;;;;;;0.90;0.38;;;2.30;99.90;;;;;;5090847;28;20078;-63
2022/01/22 01:15:43;;;;;;;0.20;0.20;;;2.30;99.90;;;;;;5085066;28;20503;-62
2022/01/22 01:34:23;;;;;;;0.43;0.30;;;2.30;99.90;;;;;;5077218;28;20047;-61
2022/01/22 01:36:49;;;;;;;1.67;0.70;;;2.20;99.90;;;;;;5089134;28;20807;-61
2022/01/22 01:39:21;;;;;;;0.32;0.30;;;2.30;99.90;;;;;;5076031;28;20060;-61
2022/01/22 01:41:57;;;;;;;0.40;0.20;;;2.20;99.90;;;;;;5087192;28;20040;-61
2022/01/22 01:44:23;;;;;;;0.30;0.30;;;2.20;99.90;;;;;;5083234;28;20051;-62
2022/01/22 01:46:52;;;;;;;0.20;0.20;;;2.20;99.90;;;;;;5090120;28;20036;-58
2022/01/22 01:49:19;;;;;;;0.52;0.20;;;2.20;99.90;;;;;;5082445;28;20063;-61
2022/01/22 01:51:45;;;;;;;0.30;0.30;;;2.20;99.90;;;;;;5084180;28;20177;-61
2022/01/22 01:59:20;;;;;;;0.22;0.22;;;2.20;99.90;;;;;;5074544;28;20032;-60
2022/01/22 02:01:46;;;;;;;0.20;0.20;;;2.20;99.90;;;;;;5086507;28;20042;-61
2022/01/22 02:04:13;;;;;;;0.20;0.20;;;2.30;99.90;;;;;;5079147;28;20062;-59
2022/01/22 02:06:39;;;;;;;0.30;0.30;;;2.30;99.90;;;;;;5087202;28;20048;-60
2022/01/22 02:09:08;;;;;;;0.40;0.30;;;2.30;99.90;;;;;;5078928;28;20107;-61
2022/01/22 02:11:35;;;;;;;0.30;0.28;;;2.30;99.90;;;;;;5088429;28;20490;-61
2022/01/22 02:14:08;;;;;;;0.30;0.30;;;2.30;99.90;;;;;;5082929;28;20044;-62
2022/01/22 02:24:54;;;;;;;0.30;0.20;;;2.20;99.90;;;;;;5075869;28;20036;-62
2022/01/22 02:27:20;;;;;;;2.33;0.30;;;2.20;99.90;;;;;;5086172;28;20043;-61
2022/01/22 02:29:46;;;;;;;0.20;0.20;;;2.20;99.90;;;;;;5077859;28;20042;-61
2022/01/22 02:35:17;;;;;;;1.75;0.40;;;2.20;99.90;;;;;;5083644;28;20089;-60
2022/01/22 02:37:53;;;;;;;1.13;0.90;;;2.20;99.90;;;;;;5081034;28;20036;-62
2022/01/22 02:40:42;;;;;;;0.65;0.30;;;2.20;99.90;;;;;;5080324;28;20751;-62
2022/01/22 02:43:10;;;;;;;0.75;0.20;;;2.20;99.90;;;;;;5077062;28;20036;-61
2022/01/22 02:45:35;;;;;;;0.20;0.20;;;2.20;99.90;;;;;;5082363;28;20078;-62
2022/01/22 02:48:01;;;;;;;0.32;0.22;;;2.20;99.90;;;;;;5069686;28;20072;-62
2022/01/22 02:50:27;;;;;;;0.30;0.20;;;2.20;99.90;;;;;;5083306;28;20503;-61
2022/01/22 02:52:53;;;;;;;0.20;0.20;;;2.20;99.90;;;;;;5076000;28;20552;-61
2022/01/22 02:55:18;;;;;;;0.63;0.28;;;2.30;99.90;;;;;;5086017;28;20147;-60
2022/01/22 02:57:45;;;;;;;0.20;0.20;;;2.30;99.90;;;;;;5079395;28;20043;-62
2022/01/22 03:00:17;;;;;;;0.50;0.25;;;2.30;99.90;;;;;;5088344;28;20059;-60
2022/01/22 03:02:43;;;;;;;0.40;0.20;;;2.40;99.90;;;;;;5064993;28;20067;-62
2022/01/22 03:05:09;;;;;;;0.30;0.22;;;2.40;99.90;;;;;;5059095;28;20064;-61
2022/01/22 03:07:36;;;;;;;0.30;0.25;;;2.40;99.90;;;;;;5058549;28;20098;-62
2022/01/22 03:10:07;;;;;;;0.20;0.20;;;2.40;99.90;;;;;;5059668;28;20071;-61
2022/01/22 03:18:19;;;;;;;0.30;0.20;;;2.50;99.90;;;;;;5059022;28;20045;-62
2022/01/22 03:23:09;;;;;;;0.95;0.20;;;2.40;99.90;;;;;;5053443;28;20666;-60
2022/01/22 03:28:23;;;;;;;2.20;0.20;;;2.50;99.90;;;;;;5050204;28;20496;-59
2022/01/22 03:30:49;;;;;;;0.47;0.32;;;2.40;99.90;;;;;;5048766;28;20037;-61
2022/01/22 03:33:19;;;;;;;2.25;0.30;;;2.40;99.90;;;;;;5053680;28;20041;-59
2022/01/22 03:35:50;;;;;;;0.57;0.20;;;2.40;99.90;;;;;;5052423;28;20045;-60
2022/01/22 03:38:15;;;;;;;1.38;0.30;;;2.40;99.90;;;;;;5060832;28;20036;-60
2022/01/22 03:40:41;;;;;;;0.43;0.20;;;2.40;99.90;;;;;;5053821;28;20039;-62
2022/01/22 03:43:07;;;;;;;0.20;0.20;;;2.40;99.90;;;;;;5057189;28;20037;-61
2022/01/22 03:45:32;;;;;;;0.20;0.20;;;2.40;99.90;;;;;;5057332;28;20053;-61
2022/01/22 03:47:59;;;;;;;0.20;0.20;;;2.40;99.90;;;;;;5054743;28;20044;-60
2022/01/22 03:50:24;;;;;;;0.30;0.30;;;2.50;99.90;;;;;;5058770;28;20055;-60
2022/01/22 03:52:50;;;;;;;0.40;0.30;;;2.50;99.90;;;;;;5059270;28;20033;-62
2022/01/22 03:56:16;;;;;;;0.60;0.30;;;2.50;99.90;;;;;;5061453;28;20067;-62
2022/01/22 03:58:10;;;;;;;0.20;0.20;;;2.50;99.90;;;;;;5056752;28;20048;-62
2022/01/22 04:00:36;;;;;;;0.20;0.20;;;2.50;99.90;;;;;;5056556;28;20071;-61
2022/01/22 04:03:28;;;;;;;0.20;0.20;;;2.50;99.90;;;;;;5059469;28;20041;-61
2022/01/22 04:06:27;;;;;;;0.40;0.30;;;2.60;99.90;;;;;;5055989;28;20049;-61
2022/01/22 04:08:40;;;;;;;0.28;0.25;;;2.60;99.90;;;;;;5055779;28;20040;-61
2022/01/22 04:11:11;;;;;;;1.20;0.30;;;2.60;99.90;;;;;;5052585;28;20029;-61
2022/01/22 04:13:36;;;;;;;0.20;0.20;;;2.60;99.90;;;;;;5056788;28;20036;-62
2022/01/22 04:16:02;;;;;;;0.30;0.30;;;2.50;99.90;;;;;;5058621;28;20500;-61
2022/01/22 04:26:56;;;;;;;0.20;0.20;;;2.50;99.90;;;;;;5057416;28;20048;-62
2022/01/22 04:29:23;;;;;;;0.70;0.30;;;2.50;99.90;;;;;;5052409;28;20040;-61
2022/01/22 04:31:50;;;;;;;0.30;0.20;;;2.60;99.90;;;;;;5061252;28;20467;-60
2022/01/22 04:34:16;;;;;;;0.20;0.20;;;2.60;99.90;;;;;;5051471;28;20042;-62
2022/01/22 04:36:42;;;;;;;0.20;0.20;;;2.50;99.90;;;;;;5066549;28;20079;-59
2022/01/22 04:39:09;;;;;;;0.20;0.20;;;2.60;99.90;;;;;;5059617;28;20067;-60
2022/01/22 04:41:35;;;;;;;0.20;0.20;;;2.60;99.90;;;;;;5068070;28;20048;-62
2022/01/22 04:44:03;;;;;;;0.55;0.30;;;2.60;99.90;;;;;;5054193;28;20349;-62
2022/01/22 04:52:29;;;;;;;0.35;0.20;;;2.50;99.90;;;;;;5052727;28;20036;-62
2022/01/22 04:55:02;;;;;;;0.22;0.10;;;2.60;99.90;;;;;;5061315;28;20496;-62
2022/01/22 04:57:35;;;;;;;0.20;0.20;;;2.60;99.90;;;;;;5056082;28;20071;-62
2022/01/22 05:00:03;;;;;;;0.10;0.10;;;2.60;99.90;;;;;;5059414;28;20120;-61
2022/01/22 05:02:29;;;;;;;0.55;0.30;;;2.60;99.90;;;;;;5053275;28;20051;-61
2022/01/22 05:04:54;;;;;;;0.60;0.20;;;2.60;99.90;;;;;;5060353;28;20036;-61
2022/01/22 05:07:20;;;;;;;0.13;0.13;;;2.60;99.90;;;;;;5064505;28;20041;-61
2022/01/22 05:09:46;;;;;;;0.10;0.10;;;2.60;99.90;;;;;;5066223;28;20036;-62
2022/01/22 05:12:11;;;;;;;0.15;0.10;;;2.60;99.90;;;;;;5054203;28;20060;-61
2022/01/22 05:14:37;;;;;;;1.23;0.22;;;2.60;99.90;;;;;;5064258;28;20056;-62
2022/01/22 05:17:05;;;;;;;0.10;0.10;;;2.60;99.90;;;;;;5052773;28;20038;-61
2022/01/22 05:22:08;;;;;;;0.22;0.22;;;2.60;99.90;;;;;;5049276;28;20047;-60
2022/01/22 05:24:38;;;;;;;0.10;0.10;;;2.60;99.90;;;;;;5059401;28;20072;-62
2022/01/22 05:32:24;;;;;;;0.50;0.30;;;2.60;99.90;;;;;;5049632;28;20115;-62
2022/01/22 05:37:35;;;;;;;0.40;0.20;;;2.60;99.90;;;;;;5052675;28;20048;-61
2022/01/22 05:40:01;;;;;;;0.22;0.20;;;2.60;99.90;;;;;;5063936;28;20040;-61
2022/01/22 05:42:27;;;;;;;0.65;0.30;;;2.60;99.90;;;;;;5049557;28;20037;-62
2022/01/22 05:44:52;;;;;;;0.20;0.20;;;2.60;99.90;;;;;;5065707;28;20044;-62
2022/01/22 05:47:24;;;;;;;0.20;0.20;;;2.60;99.90;;;;;;5050382;28;20040;-60
2022/01/22 05:49:50;;;;;;;0.45;0.20;;;2.60;99.90;;;;;;5050867;28;20068;-60
2022/01/22 05:52:23;;;;;;;0.10;0.10;;;2.60;99.90;;;;;;5045687;28;20635;-60
2022/01/22 05:55:14;;;;;;;0.20;0.20;;;2.60;99.90;;;;;;5058673;28;20068;-62
2022/01/22 06:00:22;;;;;;;0.10;0.10;;;2.60;99.90;;;;;;5062420;28;20474;-62
2022/01/22 06:02:48;;;;;;;0.10;0.10;;;2.60;99.90;;;;;;5078241;28;20132;-62
2022/01/22 06:05:13;;;;;;;0.55;0.20;;;2.60;99.90;;;;;;5085958;28;20043;-62
2022/01/22 06:07:39;;;;;;;0.20;0.20;;;2.70;99.90;;;;;;5083977;28;20074;-62
2022/01/22 06:10:16;;;;;;;0.35;0.20;;;2.70;99.90;;;;;;5084539;28;20044;-62
2022/01/22 06:15:11;;;;;;;0.30;0.30;;;2.70;99.90;;;;;;5084154;28;20038;-62
2022/01/22 06:17:37;;;;;;;0.35;0.20;;;2.70;99.90;;;;;;5084560;28;20043;-62
2022/01/22 06:20:04;;;;;;;0.45;0.30;;;2.70;99.90;;;;;;5078024;28;20036;-62
2022/01/22 06:22:30;;;;;;;1.58;0.43;;;2.70;99.90;;;;;;5081901;28;20040;-61
2022/01/22 06:24:56;;;;;;;0.30;0.30;;;2.80;99.90;;;;;;5081431;28;20043;-64
2022/01/22 06:27:22;;;;;;;0.10;0.10;;;2.80;99.90;;;;;;5079342;28;20058;-61
2022/01/22 06:29:47;;;;;;;1.60;0.82;;;2.80;99.90;;;;;;5081673;28;20024;-66
2022/01/22 06:32:13;;;;;;;0.90;0.57;;;2.80;99.90;;;;;;5076787;28;20031;-62
2022/01/22 06:34:39;;;;;;;2.97;0.70;;;2.80;99.90;;;;;;5085283;28;20401;-64
2022/01/22 06:37:04;;;;;;;2.28;0.80;;;2.80;99.90;;;;;;5084582;28;20092;-62
2022/01/22 06:39:40;;;;;;;1.88;0.98;;;2.80;99.90;;;;;;5083808;28;20079;-65
2022/01/22 06:42:06;;;;;;;1.08;0.63;;;2.80;99.90;;;;;;5076518;28;20032;-63
2022/01/22 06:44:34;;;;;;;2.47;0.93;;;2.80;99.90;;;;;;5086041;28;20601;-64
2022/01/22 06:47:00;;;;;;;1.83;0.90;;;2.80;99.90;;;;;;5083794;28;20040;-63
2022/01/22 06:49:26;;;;;;;1.50;0.98;;;2.80;99.90;;;;;;5084395;28;20105;-63
2022/01/22 06:51:54;;;;;;;1.48;0.90;;;2.80;99.90;;;;;;5083362;28;20032;-64
2022/01/22 06:54:21;;;;;;;3.83;1.90;;;2.80;99.90;;;;;;5086286;28;20047;-63
2022/01/22 06:56:47;;;;;;;8.18;4.20;;;2.80;99.90;;;;;;5083605;28;20074;-63
2022/01/22 06:59:13;;;;;;;12.18;5.80;;;2.90;99.90;;;;;;5081288;28;20431;-63
2022/01/22 07:01:39;;;;;;;5.60;2.80;;;2.90;99.90;;;;;;5073379;28;20040;-63
2022/01/22 07:04:07;;;;;;;3.20;1.45;;;2.90;99.90;;;;;;5082336;28;20040;-64
2022/01/22 07:06:32;;;;;;;3.17;1.35;;;2.80;99.90;;;;;;5075583;28;20043;-63
2022/01/22 07:08:58;;;;;;;1.35;0.95;;;2.90;99.90;;;;;;5084566;28;20620;-62
2022/01/22 07:11:24;;;;;;;3.38;1.10;;;2.90;99.90;;;;;;5084908;28;20098;-62
2022/01/22 07:13:50;;;;;;;2.45;1.17;;;3.00;99.90;;;;;;5082905;28;20535;-62
2022/01/22 07:16:16;;;;;;;2.63;1.40;;;2.90;99.90;;;;;;5081213;28;20380;-62
2022/01/22 07:18:43;;;;;;;3.08;1.60;;;2.90;99.90;;;;;;5078390;28;20044;-62
2022/01/22 07:21:20;;;;;;;2.47;1.40;;;2.90;99.90;;;;;;5082965;28;20485;-61
2022/01/22 07:26:12;;;;;;;1.95;1.23;;;2.90;99.90;;;;;;5074873;28;20044;-62
2022/01/22 07:28:39;;;;;;;2.33;1.40;;;2.90;99.90;;;;;;5086575;28;20431;-63
2022/01/22 07:31:05;;;;;;;4.18;1.40;;;2.90;99.90;;;;;;5090946;28;20174;-61
2022/01/22 07:33:31;;;;;;;4.75;1.40;;;2.90;99.90;;;;;;5086434;28;20033;-60
2022/01/22 07:35:57;;;;;;;2.38;1.10;;;3.00;99.90;;;;;;5074694;28;20051;-61
2022/01/22 07:38:22;;;;;;;1.52;1.02;;;3.00;99.90;;;;;;5085650;28;20039;-61
2022/01/22 07:40:48;;;;;;;1.85;0.80;;;3.00;99.90;;;;;;5085302;28;20040;-61
2022/01/22 07:43:17;;;;;;;2.47;1.00;;;3.00;99.90;;;;;;5086146;28;20044;-62
2022/01/22 07:45:43;;;;;;;1.98;1.02;;;3.00;99.90;;;;;;5089520;28;20540;-62
2022/01/22 07:48:09;;;;;;;2.58;1.20;;;3.00;99.90;;;;;;5085462;28;20036;-61
2022/01/22 07:50:34;;;;;;;1.50;0.70;;;3.00;99.90;;;;;;5083497;28;20125;-61
2022/01/22 07:53:01;;;;;;;1.60;0.70;;;2.90;99.90;;;;;;5087948;28;20039;-61
2022/01/22 07:55:28;;;;;;;1.27;0.77;;;2.90;99.90;;;;;;5086131;28;20044;-61
2022/01/22 07:57:53;;;;;;;1.42;0.70;;;3.00;99.90;;;;;;5081118;28;20509;-61
2022/01/22 08:00:19;;;;;;;0.88;0.60;;;3.00;99.90;;;;;;5083977;28;20040;-61
2022/01/22 08:02:45;;;;;;;1.10;0.70;;;3.00;99.90;;;;;;5077511;28;20036;-60
2022/01/22 08:05:11;;;;;;;1.50;0.90;;;3.10;99.90;;;;;;5087987;28;20113;-60
2022/01/22 08:07:38;;;;;;;1.50;0.90;;;3.10;99.90;;;;;;5086765;28;20074;-61
2022/01/22 08:10:08;;;;;;;0.68;0.50;;;3.10;99.90;;;;;;5088850;28;20052;-61
2022/01/22 08:12:35;;;;;;;0.82;0.52;;;3.00;99.90;;;;;;5088138;28;20508;-61
2022/01/22 08:15:01;;;;;;;1.48;0.60;;;3.10;99.90;;;;;;5089139;28;20040;-61
2022/01/22 08:17:27;;;;;;;0.80;0.50;;;3.10;99.90;;;;;;5086223;28;20047;-59
2022/01/22 08:19:53;;;;;;;0.70;0.43;;;3.10;99.90;;;;;;5079445;28;20039;-61
2022/01/22 08:22:19;;;;;;;0.77;0.60;;;3.00;99.90;;;;;;5074970;28;20040;-60
2022/01/22 08:24:45;;;;;;;0.85;0.40;;;3.10;99.90;;;;;;5086017;28;20054;-60
2022/01/22 08:29:36;;;;;;;0.98;0.50;;;3.20;99.90;;;;;;5085040;28;20036;-60
2022/01/22 08:32:10;;;;;;;1.08;0.60;;;3.20;99.90;;;;;;5083815;28;20043;-59
2022/01/22 08:37:22;;;;;;;0.75;0.40;;;3.20;99.90;;;;;;5071643;28;20048;-60
2022/01/22 08:39:48;;;;;;;0.47;0.32;;;3.20;99.90;;;;;;5081779;28;20039;-61
2022/01/22 08:42:13;;;;;;;0.93;0.40;;;3.30;99.90;;;;;;5072641;28;20025;-60
2022/01/22 08:44:42;;;;;;;0.68;0.40;;;3.20;99.90;;;;;;5080308;28;20028;-61
2022/01/22 08:47:08;;;;;;;0.40;0.38;;;3.20;99.90;;;;;;5087882;28;20040;-61
2022/01/22 08:49:33;;;;;;;1.40;0.70;;;3.30;99.90;;;;;;5076161;28;20036;-62
2022/01/22 08:52:01;;;;;;;0.25;0.25;;;3.30;99.90;;;;;;5075062;28;20029;-60
2022/01/22 08:54:27;;;;;;;0.82;0.40;;;3.50;99.90;;;;;;5070775;28;20028;-61
2022/01/22 08:56:53;;;;;;;0.80;0.60;;;3.40;99.90;;;;;;5082901;28;20039;-60
2022/01/22 08:59:19;;;;;;;0.70;0.50;;;3.50;99.90;;;;;;5084626;28;20036;-59
2022/01/22 09:01:48;;;;;;;0.40;0.30;;;3.50;99.90;;;;;;5074902;28;20078;-61
2022/01/22 09:04:14;;;;;;;0.70;0.30;;;3.50;99.90;;;;;;5075514;28;20032;-60
2022/01/22 09:06:40;;;;;;;0.30;0.30;;;3.50;99.90;;;;;;5080820;28;20040;-61
2022/01/22 09:09:11;;;;;;;0.90;0.52;;;3.50;99.90;;;;;;5080127;28;20032;-58
2022/01/22 09:11:39;;;;;;;0.40;0.30;;;3.60;99.90;;;;;;5085258;28;20445;-60
2022/01/22 09:14:07;;;;;;;0.70;0.30;;;3.60;99.90;;;;;;5085404;28;20043;-58
2022/01/22 09:16:34;;;;;;;0.20;0.20;;;3.60;99.90;;;;;;5092366;28;20043;-60
2022/01/22 09:19:06;;;;;;;0.45;0.30;;;3.70;99.90;;;;;;5085235;28;20055;-58
2022/01/22 09:21:38;;;;;;;0.95;0.40;;;3.70;99.90;;;;;;5078454;28;20127;-60
2022/01/22 09:24:05;;;;;;;0.30;0.30;;;3.70;99.90;;;;;;5077450;28;20115;-60
2022/01/22 09:26:31;;;;;;;0.68;0.45;;;3.70;99.90;;;;;;5098880;28;20093;-60
2022/01/22 09:28:59;;;;;;;1.73;0.60;;;3.70;99.90;;;;;;5084268;28;20038;-61
2022/01/22 09:31:27;;;;;;;2.25;1.23;;;3.70;99.90;;;;;;5081351;28;20040;-62
2022/01/22 09:33:56;;;;;;;6.20;2.70;;;3.70;99.90;;;;;;5080185;28;20062;-63
2022/01/22 09:36:22;;;;;;;3.70;2.10;;;3.80;99.90;;;;;;5087543;28;20058;-62
2022/01/22 09:38:48;;;;;;;32.97;14.88;;;3.80;99.90;;;;;;5081168;28;20561;-62
2022/01/22 09:41:18;;;;;;;4.68;1.48;;;3.90;99.90;;;;;;5093326;28;20040;-60
2022/01/22 09:43:44;;;;;;;4.47;2.58;;;3.80;99.90;;;;;;5085373;28;20051;-59
2022/01/22 09:46:10;;;;;;;1.17;0.60;;;3.90;99.90;;;;;;5097731;28;20044;-60
2022/01/22 09:48:41;;;;;;;1.48;0.73;;;3.80;99.90;;;;;;5084058;28;20139;-60
2022/01/22 09:51:07;;;;;;;1.83;0.90;;;3.90;99.90;;;;;;5088529;28;20088;-64
2022/01/22 09:53:33;;;;;;;1.50;0.43;;;3.90;99.90;;;;;;5079463;27;20051;-62
2022/01/22 09:55:58;;;;;;;3.53;0.82;;;3.90;99.90;;;;;;5086526;28;20376;-63
2022/01/22 09:58:24;;;;;;;0.93;0.40;;;3.90;99.90;;;;;;5077705;28;20063;-62
2022/01/22 10:00:50;;;;;;;0.60;0.40;;;3.80;99.90;;;;;;5087473;28;20036;-61
2022/01/22 10:03:20;;;;;;;0.95;0.52;;;3.80;99.90;;;;;;5082955;28;20411;-63
2022/01/22 10:05:46;;;;;;;1.25;0.63;;;3.90;99.90;;;;;;5089526;28;20032;-62
2022/01/22 10:08:18;;;;;;;0.82;0.47;;;3.90;99.90;;;;;;5087985;28;20040;-61
2022/01/22 10:10:43;;;;;;;1.15;0.60;;;3.90;99.90;;;;;;5090589;28;20036;-63
2022/01/22 10:13:09;;;;;;;1.13;0.60;;;3.90;99.90;;;;;;5083393;28;20036;-63
2022/01/22 10:15:35;;;;;;;3.58;2.03;;;3.90;99.90;;;;;;5089174;28;20089;-62
2022/01/22 10:18:02;;;;;;;4.60;1.08;;;3.90;99.90;;;;;;5084260;28;20032;-62
2022/01/22 10:20:40;;;;;;;0.98;0.50;;;4.00;99.90;;;;;;5081309;28;20044;-62
2022/01/22 10:23:09;;;;;;;1.52;0.50;;;3.90;99.90;;;;;;5077877;28;20058;-63
2022/01/22 10:25:44;;;;;;;1.73;0.50;;;4.00;99.90;;;;;;5077968;28;20055;-62
2022/01/22 10:28:20;;;;;;;0.60;0.30;;;3.90;99.90;;;;;;5079007;28;20475;-63
2022/01/22 10:30:47;;;;;;;;;;;4.00;99.90;;;;;;5084041;28;20040;-63
2022/01/22 10:33:30;;;;;;;1.08;0.90;;;4.10;99.90;;;;;;5080747;28;19916;-66
2022/01/22 10:36:20;;;;;;;1.83;0.60;;;4.00;99.90;;;;;;5090755;28;20399;-64
2022/01/22 10:38:48;;;;;;;0.93;0.55;;;4.00;99.90;;;;;;5084323;28;20040;-62
2022/01/22 10:41:16;;;;;;;0.65;0.40;;;3.90;99.90;;;;;;5082979;28;20070;-60
2022/01/22 10:43:54;;;;;;;1.17;0.65;;;4.00;99.90;;;;;;5082113;28;20032;-61
2022/01/22 10:46:41;;;;;;;2.22;0.70;;;4.00;99.90;;;;;;5080030;28;20041;-62
2022/01/22 10:49:14;;;;;;;3.25;0.80;;;4.00;99.90;;;;;;5082145;28;20124;-63
2022/01/22 10:51:53;;;;;;;1.50;0.90;;;4.00;99.90;;;;;;5091750;28;20145;-63
2022/01/22 10:54:27;;;;;;;4.63;2.80;;;4.10;99.90;;;;;;5082619;28;20449;-62
2022/01/22 10:56:54;;;;;;;2.75;1.00;;;4.10;99.90;;;;;;5086531;28;20096;-62
2022/01/22 10:59:22;;;;;;;7.95;4.00;;;3.90;99.90;;;;;;5079365;28;20031;-66
2022/01/22 11:01:59;;;;;;;1.55;1.00;;;4.00;99.90;;;;;;5083573;28;20037;-59
2022/01/22 11:04:30;;;;;;;1.27;0.90;;;3.90;99.90;;;;;;5086555;28;20496;-61
2022/01/22 11:06:59;;;;;;;1.33;0.85;;;3.90;99.90;;;;;;5082771;28;20131;-61
2022/01/22 11:09:29;;;;;;;1.10;0.68;;;3.90;99.90;;;;;;5079972;28;20122;-60
2022/01/22 11:11:55;;;;;;;3.50;1.10;;;3.90;99.90;;;;;;5079184;28;20068;-62
2022/01/22 11:14:21;;;;;;;1.50;0.80;;;4.00;99.90;;;;;;5076100;28;20562;-60
2022/01/22 11:16:49;;;;;;;2.35;1.08;;;4.00;99.90;;;;;;5079658;28;20123;-62
2022/01/22 11:19:17;;;;;;;2.47;1.48;;;3.90;99.90;;;;;;5078163;28;20032;-65
2022/01/22 11:21:47;;;;;;;7.70;3.45;;;4.00;99.90;;;;;;5082340;28;20040;-62
2022/01/22 11:24:16;;;;;;;5.93;3.47;;;4.00;99.90;;;;;;5081306;28;20709;-57
2022/01/22 11:26:45;;;;;;;3.33;1.48;;;4.10;99.90;;;;;;5083549;28;20044;-62
2022/01/22 11:29:14;;;;;;;6.72;2.90;;;4.10;99.90;;;;;;5088263;28;20742;-60
2022/01/22 11:31:41;;;;;;;2.35;0.93;;;4.30;99.90;;;;;;5093934;28;20066;-59
2022/01/22 11:34:07;;;;;;;5.95;2.50;;;4.20;99.90;;;;;;5088410;28;20104;-60
2022/01/22 11:36:42;;;;;;;2.22;1.40;;;4.30;99.90;;;;;;5082513;28;20063;-60
2022/01/22 11:39:17;;;;;;;1.67;1.05;;;4.30;99.90;;;;;;5082223;28;20040;-60
2022/01/22 11:41:58;;;;;;;2.30;1.05;;;4.30;99.90;;;;;;5082902;28;20391;-59
2022/01/22 11:44:35;;;;;;;0.93;0.63;;;4.30;99.90;;;;;;5078942;28;20048;-59
2022/01/22 11:47:10;;;;;;;7.45;3.47;;;4.40;99.90;;;;;;5076978;28;20043;-63
2022/01/22 11:49:37;;;;;;;6.15;3.28;;;4.40;99.90;;;;;;5081426;28;20139;-59
2022/01/22 11:52:11;;;;;;;5.45;2.90;;;4.40;99.90;;;;;;5088831;28;20050;-59
2022/01/22 11:55:00;;;;;;;1.60;0.90;;;4.40;99.90;;;;;;5086441;28;20173;-55
2022/01/22 11:57:29;;;;;;;2.78;1.00;;;4.40;99.90;;;;;;5087371;28;20173;-60
2022/01/22 12:00:20;;;;;;;4.72;1.10;;;4.40;99.90;;;;;;5080218;28;20051;-56
2022/01/22 12:03:09;;;;;;;1.92;1.00;;;4.40;99.90;;;;;;5085968;28;20063;-62
2022/01/22 12:05:54;;;;;;;2.22;1.10;;;4.50;99.90;;;;;;5084754;28;20520;-61
2022/01/22 12:08:23;;;;;;;1.63;1.00;;;4.60;99.90;;;;;;5083367;28;20289;-60
2022/01/22 12:16:40;;;;;;;1.75;0.90;;;4.60;99.90;;;;;;5084104;28;20036;-62
2022/01/22 12:19:48;;;;;;;1.75;0.80;;;4.60;99.90;;;;;;5080118;28;20047;-62
2022/01/22 12:22:47;;;;;;;2.78;0.80;;;4.50;99.90;;;;;;5080589;28;20487;-60
2022/01/22 12:25:16;;;;;;;2.97;0.68;;;4.50;99.90;;;;;;5080126;28;20043;-60
2022/01/22 12:27:49;;;;;;;1.40;0.80;;;4.50;99.90;;;;;;5080984;28;20048;-60
2022/01/22 12:30:31;;;;;;;9.63;0.70;;;4.60;99.90;;;;;;5080894;28;20052;-58
2022/01/22 12:32:59;;;;;;;1.77;0.88;;;4.60;99.90;;;;;;5081806;28;20044;-61
2022/01/22 12:35:42;;;;;;;1.00;0.80;;;4.60;99.90;;;;;;5084219;28;20500;-57
2022/01/22 12:38:31;;;;;;;1.05;0.70;;;4.60;99.90;;;;;;5071618;28;20044;-60
2022/01/22 12:44:14;;;;;;;2.08;1.02;;;4.40;99.90;;;;;;5080587;28;20196;-60
2022/01/22 12:46:40;;;;;;;2.38;0.73;;;4.40;99.90;;;;;;5089729;28;20118;-60
2022/01/22 12:49:08;;;;;;;1.58;1.00;;;4.40;99.90;;;;;;5076996;28;20031;-60
2022/01/22 12:51:35;;;;;;;1.90;1.10;;;4.40;99.90;;;;;;5085196;28;20039;-61
2022/01/22 12:54:02;;;;;;;1.33;0.90;;;4.40;99.90;;;;;;5085488;28;20036;-60
2022/01/22 12:59:04;;;;;;;1.13;0.80;;;4.50;99.90;;;;;;5083051;28;20067;-61
2022/01/22 13:01:31;;;;;;;1.50;0.90;;;4.50;99.90;;;;;;5085957;28;20039;-60
2022/01/22 13:04:00;;;;;;;0.90;0.70;;;4.40;99.90;;;;;;5089354;28;20123;-61
2022/01/22 13:06:38;;;;;;;2.35;1.00;;;4.50;99.90;;;;;;5086895;28;20039;-61
2022/01/22 13:09:05;;;;;;;1.42;0.90;;;4.50;99.90;;;;;;5078250;28;20048;-59
2022/01/22 13:11:32;;;;;;;1.38;0.80;;;4.40;99.90;;;;;;5075919;28;20115;-61
2022/01/22 13:13:58;;;;;;;1.73;0.73;;;4.30;99.90;;;;;;5079661;28;20600;-60
2022/01/22 13:16:24;;;;;;;1.38;0.90;;;4.40;99.90;;;;;;5091045;28;20081;-60
2022/01/22 13:18:58;;;;;;;1.00;0.90;;;4.40;99.90;;;;;;5083499;28;20036;-63
2022/01/22 13:21:28;;;;;;;1.10;0.80;;;4.50;99.90;;;;;;5077494;28;20476;-62
2022/01/22 13:24:07;;;;;;;1.05;0.77;;;4.60;99.90;;;;;;5076650;28;20452;-60
2022/01/22 13:26:44;;;;;;;1.33;0.70;;;4.60;99.90;;;;;;5087191;28;20058;-62
2022/01/22 13:29:18;;;;;;;1.70;1.00;;;4.50;99.90;;;;;;5078859;28;20067;-63
2022/01/22 13:32:03;;;;;;;2.35;1.38;;;4.40;99.90;;;;;;5082506;28;20036;-62
2022/01/22 13:34:44;;;;;;;1.92;1.20;;;4.40;99.90;;;;;;5078469;28;20503;-61
2022/01/22 13:47:56;;;;;;;1.92;1.20;;;4.30;99.90;;;;;;5077863;28;20036;-63
2022/01/22 13:50:22;;;;;;;1.40;1.00;;;4.30;99.90;;;;;;5075836;28;20067;-62
2022/01/22 13:52:49;;;;;;;1.92;1.20;;;4.30;99.90;;;;;;5079143;28;20545;-62
2022/01/22 13:55:15;;;;;;;3.40;1.75;;;4.30;99.90;;;;;;5081789;28;20036;-63
2022/01/22 13:57:47;;;;;;;1.95;1.23;;;4.30;99.90;;;;;;5081373;28;20050;-62
2022/01/22 14:00:18;;;;;;;3.70;1.48;;;4.40;99.90;;;;;;5080688;28;20995;-62
2022/01/22 14:03:03;;;;;;;2.38;1.08;;;4.40;99.90;;;;;;5086413;28;20114;-62
2022/01/22 14:05:29;;;;;;;1.48;1.05;;;4.20;99.90;;;;;;5085316;28;20060;-62
2022/01/22 14:08:05;;;;;;;1.30;0.80;;;4.20;99.90;;;;;;5074886;28;20045;-62
2022/01/22 14:10:32;;;;;;;1.38;0.70;;;4.20;99.90;;;;;;5093803;28;20543;-62
2022/01/22 14:13:10;;;;;;;3.13;0.85;;;4.20;99.90;;;;;;5090502;28;20046;-61
2022/01/22 14:15:45;;;;;;;1.90;1.23;;;4.20;99.90;;;;;;5082073;28;20427;-62
2022/01/22 14:18:23;;;;;;;2.00;0.98;;;4.20;99.90;;;;;;5075559;28;20040;-61
2022/01/22 14:20:54;;;;;;;2.90;1.75;;;4.10;99.90;;;;;;5086188;28;20372;-61
2022/01/22 14:23:22;;;;;;;2.22;1.05;;;4.00;99.90;;;;;;5076916;28;20376;-61
2022/01/22 14:26:08;;;;;;;5.45;2.63;;;4.10;99.90;;;;;;5084691;28;20058;-61
2022/01/22 14:28:36;;;;;;;1.35;0.70;;;4.10;99.90;;;;;;5080370;28;20032;-60
2022/01/22 14:31:24;;;;;;;0.95;0.70;;;4.10;99.90;;;;;;5083212;28;20032;-61
2022/01/22 14:33:50;;;;;;;1.60;0.90;;;4.00;99.90;;;;;;5070271;28;20524;-61
2022/01/22 14:36:19;;;;;;;3.08;1.95;;;4.10;99.90;;;;;;5090369;28;20739;-62
2022/01/22 14:39:03;;;;;;;2.92;1.40;;;4.10;99.90;;;;;;5075196;28;20044;-59
2022/01/22 14:44:29;;;;;;;2.63;0.68;;;4.00;99.90;;;;;;5075243;28;20460;-62
2022/01/22 14:47:04;;;;;;;0.93;0.70;;;4.00;99.90;;;;;;5068272;28;20051;-63
2022/01/22 14:49:43;;;;;;;1.08;0.70;;;4.00;99.90;;;;;;5081641;28;20047;-62
2022/01/22 14:52:12;;;;;;;2.25;0.65;;;4.00;99.90;;;;;;5075828;28;20028;-62
2022/01/22 14:54:41;;;;;;;0.93;0.68;;;3.90;99.90;;;;;;5081372;28;20050;-62
2022/01/22 14:57:10;;;;;;;0.68;0.40;;;4.00;99.90;;;;;;5082518;28;20036;-61